Standon, United Kingdom
Current Conditions -  °F | °C
As of 6:50 AM on Saturday 25 Oct 2014 (Local Time) from EGOS Reporting Station
Scattered Clouds Scattered Clouds  
Wind Chill:   Ceiling: Unl
Heat Index:   Visibility: 6mi
Dew Point:   Wind: 9mph
Humidity: 82%   Direction: 180°S
Pressure: 29.94"   Gusts: NA
Location:  52.92°N, 2.28°W
Report Text: EGOS 250550Z AUTO 18008KT 9999 SCT032/// SCT045/// 09/06 Q1014
Loading
Personal Weather Stations






























Interactive Weather Map
Tropical Storm Tracking
New forecast layout! Learn more

10-Day Weather Forecast

Advertisements
Track Severe Weather on mobile